createdAt,value
2022-12-08T00:01:43.464Z,9.13
2022-12-08T00:04:12.929Z,8.90
2022-12-08T00:07:00.099Z,8.37
2022-12-08T00:09:38.522Z,7.37
2022-12-08T00:12:09.277Z,7.47
2022-12-08T00:14:41.455Z,7.60
2022-12-08T00:17:11.883Z,7.57
2022-12-08T00:19:42.092Z,9.73
2022-12-08T00:22:12.817Z,9.57
2022-12-08T00:24:44.358Z,15.17
2022-12-08T00:27:16.090Z,6.77
2022-12-08T00:29:46.915Z,7.87
2022-12-08T00:32:15.879Z,6.83
2022-12-08T00:34:44.716Z,7.40
2022-12-08T00:37:13.613Z,16.90
2022-12-08T00:39:42.679Z,8.03
2022-12-08T00:42:14.603Z,11.30
2022-12-08T00:44:46.496Z,6.40
2022-12-08T00:47:21.006Z,9.10
2022-12-08T00:49:52.338Z,8.23
2022-12-08T00:52:21.613Z,8.97
2022-12-08T00:54:50.548Z,8.17
2022-12-08T00:57:19.366Z,6.27
2022-12-08T00:59:49.721Z,8.87
2022-12-08T01:02:18.729Z,7.60
2022-12-08T01:04:49.035Z,5.90
2022-12-08T01:07:17.844Z,6.70
2022-12-08T01:09:46.648Z,15.53
2022-12-08T01:12:15.528Z,8.60
2022-12-08T01:14:44.516Z,8.77
2022-12-08T01:17:14.775Z,7.87
2022-12-08T01:19:43.626Z,9.07
2022-12-08T01:22:12.390Z,9.47
2022-12-08T01:24:41.276Z,9.20
2022-12-08T01:27:10.076Z,9.90
2022-12-08T01:29:38.938Z,8.87
2022-12-08T01:32:09.461Z,9.10
2022-12-08T01:34:40.000Z,10.53
2022-12-08T01:37:08.778Z,7.80
2022-12-08T01:39:37.711Z,8.37
2022-12-08T01:42:06.720Z,8.50
2022-12-08T01:44:56.220Z,9.67
2022-12-08T01:47:28.288Z,8.17
2022-12-08T01:49:58.612Z,8.47
2022-12-08T01:52:31.941Z,8.57
2022-12-08T01:55:04.263Z,14.90
2022-12-08T01:57:36.510Z,7.20
2022-12-08T02:00:08.443Z,9.80
2022-12-08T02:02:45.661Z,8.40
2022-12-08T02:05:16.558Z,7.33
2022-12-08T02:07:46.068Z,7.50
2022-12-08T02:10:20.565Z,7.00
2022-12-08T02:12:51.681Z,8.77
2022-12-08T02:15:20.812Z,9.70
2022-12-08T02:18:03.371Z,8.77
2022-12-08T02:20:53.607Z,12.40
2022-12-08T02:23:33.220Z,7.97
2022-12-08T02:26:33.190Z,8.40
2022-12-08T02:29:32.586Z,9.80
2022-12-08T02:32:21.670Z,9.00
2022-12-08T02:34:59.069Z,9.00
2022-12-08T02:37:33.167Z,8.63
2022-12-08T02:40:08.764Z,9.90
2022-12-08T02:42:41.497Z,8.07
2022-12-08T02:45:15.660Z,8.43
2022-12-08T02:47:45.117Z,8.10
2022-12-08T02:50:16.274Z,8.73
2022-12-08T02:52:46.744Z,8.23
2022-12-08T02:55:26.682Z,10.90
2022-12-08T02:58:35.588Z,7.83
2022-12-08T03:01:21.918Z,9.77
2022-12-08T03:04:00.570Z,9.83
2022-12-08T03:06:36.820Z,8.40
2022-12-08T03:09:11.863Z,9.30
2022-12-08T03:11:46.693Z,10.73
2022-12-08T03:14:19.052Z,9.87
2022-12-08T03:16:51.079Z,10.20
2022-12-08T03:19:22.343Z,10.23
2022-12-08T03:22:00.632Z,14.23
2022-12-08T03:24:29.949Z,13.13
2022-12-08T03:27:02.908Z,9.43
2022-12-08T03:29:32.649Z,10.20
2022-12-08T03:32:08.806Z,10.57
2022-12-08T03:34:38.719Z,11.40
2022-12-08T03:37:09.321Z,11.53
2022-12-08T03:39:38.100Z,10.63
2022-12-08T03:42:07.283Z,9.97
2022-12-08T03:44:36.122Z,9.37
2022-12-08T03:47:04.872Z,8.97
2022-12-08T03:49:33.627Z,11.60
2022-12-08T03:52:02.389Z,8.93
2022-12-08T03:54:32.522Z,10.70
2022-12-08T03:57:01.247Z,8.63
2022-12-08T03:59:31.339Z,9.30
2022-12-08T04:02:00.266Z,8.50
2022-12-08T04:04:29.073Z,11.87
2022-12-08T04:06:57.869Z,9.03
2022-12-08T04:09:26.755Z,9.93
2022-12-08T04:11:57.036Z,10.40
2022-12-08T04:14:25.786Z,10.13
2022-12-08T04:16:54.534Z,11.17
2022-12-08T04:19:23.353Z,9.37
2022-12-08T04:21:52.133Z,10.80
2022-12-08T04:24:20.914Z,9.90
2022-12-08T04:26:50.027Z,9.53
2022-12-08T04:29:20.427Z,10.20
2022-12-08T04:31:49.285Z,10.93
2022-12-08T04:34:18.203Z,11.40
2022-12-08T04:36:46.990Z,11.07
2022-12-08T04:39:15.758Z,10.00
2022-12-08T04:41:44.512Z,12.13
2022-12-08T04:44:13.291Z,10.93
2022-12-08T04:46:43.956Z,11.27
2022-12-08T04:49:12.874Z,11.83
2022-12-08T04:51:41.665Z,10.90
2022-12-08T04:54:10.564Z,13.37
2022-12-08T04:56:39.391Z,11.17
2022-12-08T04:59:08.199Z,10.97
2022-12-08T05:01:37.158Z,13.43
2022-12-08T05:04:07.418Z,11.40
2022-12-08T05:06:36.285Z,13.40
2022-12-08T05:09:05.104Z,14.90
2022-12-08T05:11:33.923Z,13.27
2022-12-08T05:14:02.735Z,12.10
2022-12-08T05:16:31.642Z,14.63
2022-12-08T05:19:00.550Z,16.47
2022-12-08T05:21:30.887Z,13.20
2022-12-08T05:23:59.635Z,12.20
2022-12-08T05:26:28.453Z,13.93
2022-12-08T05:28:57.250Z,14.03
2022-12-08T05:31:26.118Z,15.37
2022-12-08T05:33:59.566Z,15.20
2022-12-08T05:36:32.842Z,13.80
2022-12-08T05:39:01.638Z,16.70
2022-12-08T05:41:30.495Z,15.63
2022-12-08T05:43:59.329Z,14.43
2022-12-08T05:46:28.149Z,14.03
2022-12-08T05:48:56.986Z,14.87
2022-12-08T05:51:26.075Z,16.50
2022-12-08T05:53:57.547Z,14.57
2022-12-08T05:56:26.848Z,15.90
2022-12-08T05:58:55.773Z,16.70
2022-12-08T06:01:26.161Z,14.67
2022-12-08T06:03:55.751Z,19.37
2022-12-08T06:06:24.572Z,16.57
2022-12-08T06:08:53.768Z,17.40
2022-12-08T06:11:26.290Z,16.70
2022-12-08T06:13:56.333Z,16.70
2022-12-08T06:16:26.451Z,18.00
2022-12-08T06:18:55.908Z,17.27
2022-12-08T06:21:24.948Z,17.33
2022-12-08T06:23:55.674Z,16.27
2022-12-08T06:26:26.197Z,18.97
2022-12-08T06:28:55.146Z,21.37
2022-12-08T06:31:26.090Z,15.37
2022-12-08T06:33:55.799Z,17.30
2022-12-08T06:36:26.528Z,15.03
2022-12-08T06:38:55.369Z,15.73
2022-12-08T06:41:25.858Z,17.30
2022-12-08T06:43:57.676Z,15.30
2022-12-08T06:46:26.743Z,18.03
2022-12-08T06:48:55.791Z,17.43
2022-12-08T06:51:24.805Z,15.97
2022-12-08T06:53:53.786Z,16.77
2022-12-08T06:56:24.792Z,15.83
2022-12-08T06:58:55.176Z,15.27
2022-12-08T07:01:24.296Z,16.00
2022-12-08T07:03:53.231Z,16.43
2022-12-08T07:06:25.695Z,16.93
2022-12-08T07:08:54.364Z,16.73
2022-12-08T07:11:23.769Z,17.57
2022-12-08T07:13:53.136Z,17.47
2022-12-08T07:16:23.532Z,18.30
2022-12-08T07:18:52.817Z,16.40
2022-12-08T07:21:21.503Z,18.20
2022-12-08T07:23:57.314Z,18.27
2022-12-08T07:26:27.619Z,18.87
2022-12-08T07:28:56.578Z,17.27
2022-12-08T07:31:28.823Z,17.00
2022-12-08T07:33:58.796Z,17.33
2022-12-08T07:36:28.225Z,18.57
2022-12-08T07:38:58.133Z,17.33
2022-12-08T07:41:28.628Z,19.20
2022-12-08T07:43:58.710Z,17.57
2022-12-08T07:46:29.667Z,16.23
2022-12-08T07:49:01.237Z,18.50
2022-12-08T07:51:30.581Z,18.13
2022-12-08T07:53:59.432Z,16.33
2022-12-08T07:56:28.268Z,17.53
2022-12-08T07:59:01.384Z,16.17
2022-12-08T08:01:36.401Z,17.33
2022-12-08T08:04:06.195Z,15.97
2022-12-08T08:06:37.236Z,18.33
2022-12-08T08:09:06.940Z,17.40
2022-12-08T08:11:35.931Z,16.53
2022-12-08T08:14:05.280Z,13.60
2022-12-08T08:16:38.573Z,15.80
2022-12-08T08:19:07.679Z,17.13
2022-12-08T08:21:46.285Z,15.17
2022-12-08T08:24:15.348Z,13.93
2022-12-08T08:26:44.134Z,17.40
2022-12-08T08:29:12.878Z,15.13
2022-12-08T08:31:43.138Z,16.30
2022-12-08T08:34:11.982Z,14.50
2022-12-08T08:36:41.502Z,14.43
2022-12-08T08:39:10.648Z,15.50
2022-12-08T08:41:39.501Z,13.57
2022-12-08T08:44:09.618Z,13.60
2022-12-08T08:46:38.514Z,13.70
2022-12-08T08:49:09.026Z,14.00
2022-12-08T08:51:37.862Z,14.30
2022-12-08T08:54:07.271Z,13.90
2022-12-08T08:56:36.121Z,14.57
2022-12-08T08:59:05.051Z,12.20
2022-12-08T09:01:33.995Z,12.70
2022-12-08T09:04:03.091Z,13.17
2022-12-08T09:06:33.785Z,13.23
2022-12-08T09:09:02.907Z,13.03
2022-12-08T09:11:31.877Z,13.13
2022-12-08T09:14:05.633Z,12.90
2022-12-08T09:16:40.433Z,13.13
2022-12-08T09:19:31.917Z,12.70
2022-12-08T09:22:02.502Z,14.00
2022-12-08T09:24:41.500Z,12.80
2022-12-08T09:27:12.082Z,12.80
2022-12-08T09:29:43.351Z,13.90
2022-12-08T09:32:12.848Z,13.97
2022-12-08T09:34:41.560Z,12.33
2022-12-08T09:37:11.811Z,12.53
2022-12-08T09:39:40.712Z,11.40
2022-12-08T09:42:09.605Z,10.47
2022-12-08T09:44:45.628Z,10.80
2022-12-08T09:47:22.650Z,10.20
2022-12-08T09:50:01.062Z,10.23
2022-12-08T09:52:36.450Z,11.20
2022-12-08T09:55:16.343Z,9.73
2022-12-08T09:57:50.443Z,10.60
2022-12-08T10:00:26.156Z,9.33
2022-12-08T10:02:55.153Z,8.63
2022-12-08T10:05:26.069Z,9.57
2022-12-08T10:08:08.428Z,8.60
2022-12-08T10:10:43.737Z,9.17
2022-12-08T10:13:20.004Z,9.57
2022-12-08T10:15:54.654Z,10.77
2022-12-08T10:18:29.052Z,9.63
2022-12-08T10:21:27.248Z,11.40
2022-12-08T10:24:05.437Z,10.43
2022-12-08T10:26:35.300Z,10.50
2022-12-08T10:29:05.118Z,9.93
2022-12-08T10:31:34.025Z,9.70
2022-12-08T10:34:14.931Z,11.80
2022-12-08T10:36:54.080Z,10.90
2022-12-08T10:39:41.846Z,9.87
2022-12-08T10:42:25.195Z,8.80
2022-12-08T10:45:03.681Z,15.27
2022-12-08T10:47:40.079Z,11.73
2022-12-08T10:50:21.789Z,10.00
2022-12-08T10:53:00.836Z,11.30
2022-12-08T10:55:43.964Z,10.80
2022-12-08T10:58:30.063Z,12.10
2022-12-08T11:01:06.157Z,10.97
2022-12-08T11:03:42.690Z,11.73
2022-12-08T11:06:17.721Z,14.53
2022-12-08T11:09:09.955Z,14.17
2022-12-08T11:11:50.455Z,10.67
2022-12-08T11:14:25.305Z,10.50
2022-12-08T11:16:58.125Z,11.10
2022-12-08T11:19:29.627Z,11.43
2022-12-08T11:21:58.865Z,12.23
2022-12-08T11:24:39.896Z,11.70
2022-12-08T11:27:16.492Z,11.17
2022-12-08T11:29:51.385Z,11.07
2022-12-08T11:32:24.223Z,12.67
2022-12-08T11:34:56.514Z,12.00
2022-12-08T11:37:34.714Z,12.33
2022-12-08T11:40:12.927Z,11.97
2022-12-08T11:42:52.243Z,12.60
2022-12-08T11:45:28.359Z,13.50
2022-12-08T11:48:07.243Z,13.17
2022-12-08T11:50:44.887Z,13.60
2022-12-08T11:53:29.246Z,12.40
2022-12-08T11:56:07.948Z,13.57
2022-12-08T11:58:43.677Z,11.87
2022-12-08T12:01:21.574Z,14.13
2022-12-08T12:04:02.269Z,13.20
2022-12-08T12:07:04.771Z,12.77
2022-12-08T12:09:47.146Z,12.80
2022-12-08T12:12:36.389Z,11.30
2022-12-08T12:15:53.903Z,13.57
2022-12-08T12:18:32.058Z,11.87
2022-12-08T12:21:07.467Z,12.23
2022-12-08T12:23:41.624Z,10.93
2022-12-08T12:26:20.589Z,11.60
2022-12-08T12:28:57.784Z,15.20
2022-12-08T12:31:32.723Z,10.93
2022-12-08T12:34:11.322Z,11.10
2022-12-08T12:36:53.423Z,10.93
2022-12-08T12:39:32.326Z,11.97
2022-12-08T12:42:05.107Z,13.70
2022-12-08T12:44:49.010Z,12.93
2022-12-08T12:47:55.577Z,12.63
2022-12-08T12:50:47.845Z,14.03
2022-12-08T12:53:52.101Z,13.37
2022-12-08T12:56:51.838Z,13.13
2022-12-08T12:59:53.263Z,12.73
2022-12-08T13:02:38.650Z,10.77
2022-12-08T13:05:20.738Z,13.10
2022-12-08T13:07:57.470Z,16.20
2022-12-08T13:10:32.528Z,11.77
2022-12-08T13:13:09.901Z,14.33
2022-12-08T13:15:46.641Z,12.20
2022-12-08T13:18:24.978Z,13.57
2022-12-08T13:20:56.894Z,12.60
2022-12-08T13:23:45.405Z,12.23
2022-12-08T13:26:20.977Z,11.10
2022-12-08T13:29:19.129Z,13.30
2022-12-08T13:31:52.209Z,13.60
2022-12-08T13:34:33.905Z,14.30
2022-12-08T13:37:19.142Z,14.90
2022-12-08T13:39:53.712Z,15.27
2022-12-08T13:42:26.522Z,15.13
2022-12-08T13:48:23.497Z,16.57
2022-12-08T13:57:03.949Z,14.10
2022-12-08T13:59:34.380Z,16.73
2022-12-08T14:02:06.669Z,14.23
2022-12-08T14:05:09.340Z,14.87
2022-12-08T14:07:26.425Z,15.00
2022-12-08T14:09:57.176Z,16.30
2022-12-08T14:12:30.052Z,16.00
2022-12-08T14:15:04.347Z,15.13
2022-12-08T14:17:43.720Z,13.90
2022-12-08T14:20:25.203Z,15.63
2022-12-08T14:22:57.031Z,13.57
2022-12-08T14:25:34.630Z,15.33
2022-12-08T14:28:06.236Z,15.50
2022-12-08T14:30:39.015Z,15.57
2022-12-08T14:33:13.815Z,17.63
2022-12-08T14:35:43.100Z,15.30
2022-12-08T14:38:16.551Z,15.90
2022-12-08T14:40:46.531Z,15.20
2022-12-08T14:43:18.966Z,15.97
2022-12-08T14:45:51.015Z,17.57
2022-12-08T14:48:29.572Z,15.57
2022-12-08T14:51:09.744Z,16.53
2022-12-08T14:53:43.873Z,16.33
2022-12-08T14:56:22.115Z,18.50
2022-12-08T14:59:03.101Z,17.97
2022-12-08T15:01:32.401Z,17.63
2022-12-08T15:04:11.074Z,22.03
2022-12-08T15:06:47.564Z,17.50
2022-12-08T15:09:29.207Z,18.33
2022-12-08T15:12:29.267Z,18.97
2022-12-08T15:15:03.222Z,22.23
2022-12-08T15:17:37.647Z,18.83
2022-12-08T15:20:09.027Z,18.10
2022-12-08T15:22:39.325Z,19.50
2022-12-08T15:25:15.398Z,20.13
2022-12-08T15:27:50.545Z,18.93
2022-12-08T15:30:20.384Z,17.50
2022-12-08T15:32:52.825Z,21.67
2022-12-08T15:35:22.024Z,23.90
2022-12-08T15:37:50.835Z,20.40
2022-12-08T15:40:26.513Z,18.27
2022-12-08T15:42:55.483Z,21.67
2022-12-08T15:45:29.513Z,19.23
2022-12-08T15:47:58.670Z,18.30
2022-12-08T15:50:27.584Z,19.67
2022-12-08T15:53:19.343Z,18.53
2022-12-08T15:56:26.455Z,21.20
2022-12-08T15:58:57.606Z,26.07
2022-12-08T16:01:27.380Z,23.73
2022-12-08T16:04:36.910Z,25.20
2022-12-08T16:09:41.359Z,23.63
2022-12-08T16:13:40.350Z,21.40
2022-12-08T16:18:19.431Z,24.00
2022-12-08T16:30:03.477Z,27.47
2022-12-08T16:32:37.235Z,22.13
2022-12-08T16:35:10.809Z,26.40
2022-12-08T16:37:42.802Z,23.10
2022-12-08T16:40:16.846Z,24.53
2022-12-08T16:42:49.134Z,26.53
2022-12-08T16:45:23.083Z,26.30
2022-12-08T16:47:54.233Z,22.67
2022-12-08T16:50:26.895Z,24.80
2022-12-08T16:52:59.539Z,24.13
2022-12-08T16:55:43.439Z,22.60
2022-12-08T16:58:20.909Z,22.03
2022-12-08T17:00:58.720Z,21.27
2022-12-08T17:03:37.546Z,21.63
2022-12-08T17:09:01.824Z,25.17
2022-12-08T17:11:37.462Z,24.00
2022-12-08T17:14:09.929Z,28.00
2022-12-08T17:16:40.612Z,25.50
2022-12-08T17:19:09.807Z,21.40
2022-12-08T17:21:38.896Z,23.93
2022-12-08T17:24:08.042Z,25.70
2022-12-08T17:26:37.843Z,31.93
2022-12-08T17:29:07.394Z,25.73
2022-12-08T17:31:38.518Z,27.53
2022-12-08T17:34:10.605Z,27.97
2022-12-08T17:36:40.282Z,27.20
2022-12-08T17:39:14.825Z,30.87
2022-12-08T17:41:48.612Z,28.23
2022-12-08T17:44:20.232Z,37.10
2022-12-08T17:46:53.236Z,27.60
2022-12-08T17:49:25.903Z,32.57
2022-12-08T17:52:00.147Z,30.40
2022-12-08T17:54:30.963Z,32.80
2022-12-08T17:57:01.338Z,25.57
2022-12-08T17:59:30.873Z,27.93
2022-12-08T18:02:01.027Z,29.23
2022-12-08T18:04:34.069Z,26.63
2022-12-08T18:07:04.325Z,27.30
2022-12-08T18:09:35.547Z,26.33
2022-12-08T18:12:04.558Z,27.10
2022-12-08T18:14:33.827Z,32.27
2022-12-08T18:17:03.679Z,28.57
2022-12-08T18:19:35.047Z,26.87
2022-12-08T18:22:04.834Z,26.87
2022-12-08T18:24:35.784Z,28.50
2022-12-08T18:27:05.306Z,27.70
2022-12-08T18:29:35.081Z,26.63
2022-12-08T18:32:04.990Z,27.63
2022-12-08T18:34:37.647Z,25.13
2022-12-08T18:37:07.760Z,23.50
2022-12-08T18:39:37.895Z,26.20
2022-12-08T18:42:23.729Z,23.87
2022-12-08T18:44:56.447Z,21.10
2022-12-08T18:47:26.420Z,27.83
2022-12-08T18:50:01.368Z,26.57
2022-12-08T18:52:33.859Z,30.40
2022-12-08T18:55:07.473Z,27.30
2022-12-08T18:57:40.168Z,23.80
2022-12-08T19:00:16.183Z,25.07
2022-12-08T19:02:47.775Z,27.20
2022-12-08T19:05:19.644Z,25.67
2022-12-08T19:07:50.845Z,24.07
2022-12-08T19:10:24.303Z,24.90
2022-12-08T19:12:55.854Z,22.20
2022-12-08T19:15:27.156Z,30.50
2022-12-08T19:17:57.877Z,24.90
2022-12-08T19:20:29.636Z,21.83
2022-12-08T19:23:03.382Z,22.17
2022-12-08T19:25:33.906Z,20.73
2022-12-08T19:28:05.293Z,27.63
2022-12-08T19:30:36.927Z,23.80
2022-12-08T19:33:09.030Z,24.20
2022-12-08T19:35:52.050Z,22.83
2022-12-08T19:38:27.977Z,23.03
2022-12-08T19:41:36.028Z,25.90
2022-12-08T19:44:38.757Z,23.33
2022-12-08T19:47:11.224Z,26.30
2022-12-08T19:49:43.416Z,24.77
2022-12-08T19:52:17.865Z,22.60
2022-12-08T19:54:48.358Z,22.37
2022-12-08T19:57:21.985Z,24.33
2022-12-08T19:59:57.559Z,21.77
2022-12-08T20:02:27.618Z,25.23
2022-12-08T20:04:58.084Z,22.17
2022-12-08T20:07:32.221Z,24.60
2022-12-08T20:10:03.437Z,23.30
2022-12-08T20:12:37.450Z,21.70
2022-12-08T20:15:10.335Z,25.73
2022-12-08T20:17:45.031Z,24.17
2022-12-08T20:20:17.780Z,22.47
2022-12-08T20:22:50.727Z,25.97
2022-12-08T20:25:21.614Z,21.47
2022-12-08T20:27:55.982Z,19.97
2022-12-08T20:30:28.769Z,19.50
2022-12-08T20:32:59.127Z,22.97
2022-12-08T20:35:30.416Z,21.60
2022-12-08T20:38:01.661Z,22.00
2022-12-08T20:40:32.026Z,23.67
2022-12-08T20:43:05.655Z,20.00
2022-12-08T20:45:36.846Z,19.87
2022-12-08T20:48:08.765Z,21.97
2022-12-08T20:50:38.880Z,20.87
2022-12-08T20:53:10.481Z,20.17
2022-12-08T20:55:44.859Z,23.63
2022-12-08T20:58:15.065Z,24.87
2022-12-08T21:00:47.475Z,25.77
2022-12-08T21:03:17.950Z,21.40
2022-12-08T21:05:51.727Z,24.13
2022-12-08T21:08:28.675Z,30.00
2022-12-08T21:11:00.848Z,22.67
2022-12-08T21:13:31.522Z,23.13
2022-12-08T21:16:01.572Z,21.37
2022-12-08T21:18:37.481Z,25.07
2022-12-08T21:21:13.025Z,25.00
2022-12-08T21:23:45.918Z,26.23
2022-12-08T21:26:17.651Z,26.00
2022-12-08T21:28:49.475Z,21.17
2022-12-08T21:31:27.037Z,24.37
2022-12-08T21:33:56.662Z,25.63
2022-12-08T21:36:27.192Z,27.90
2022-12-08T21:38:59.460Z,23.97
2022-12-08T21:41:47.063Z,26.67
2022-12-08T21:44:20.561Z,25.27
2022-12-08T21:46:49.958Z,29.37
2022-12-08T21:49:18.946Z,22.10
2022-12-08T21:51:48.129Z,25.47
2022-12-08T21:54:19.674Z,26.27
2022-12-08T21:56:50.461Z,26.30
2022-12-08T21:59:22.265Z,25.43
2022-12-08T22:01:56.924Z,25.87
2022-12-08T22:04:28.108Z,23.43
2022-12-08T22:06:57.430Z,26.30
2022-12-08T22:09:27.805Z,27.60
2022-12-08T22:11:57.014Z,25.10
2022-12-08T22:14:26.005Z,27.47
2022-12-08T22:16:54.918Z,26.00
2022-12-08T22:19:24.794Z,27.73
2022-12-08T22:21:53.905Z,25.97
2022-12-08T22:24:22.992Z,25.73
2022-12-08T22:26:53.316Z,27.20
2022-12-08T22:29:22.288Z,27.60
2022-12-08T22:31:51.455Z,20.87
2022-12-08T22:34:20.550Z,28.40
2022-12-08T22:36:49.642Z,28.73
2022-12-08T22:39:18.591Z,26.00
2022-12-08T22:41:47.508Z,25.73
2022-12-08T22:44:17.945Z,24.40
2022-12-08T22:46:47.306Z,26.37
2022-12-08T22:49:16.325Z,24.13
2022-12-08T22:51:45.439Z,28.50
2022-12-08T22:54:14.571Z,28.13
2022-12-08T22:56:43.488Z,30.70
2022-12-08T22:59:12.338Z,27.00
2022-12-08T23:01:42.869Z,25.37
2022-12-08T23:04:17.411Z,23.40
2022-12-08T23:06:46.698Z,23.33
2022-12-08T23:09:15.892Z,27.23
2022-12-08T23:11:45.484Z,25.77
2022-12-08T23:14:14.471Z,25.50
2022-12-08T23:16:45.211Z,26.63
2022-12-08T23:19:15.000Z,27.17
2022-12-08T23:21:43.860Z,24.50
2022-12-08T23:24:13.301Z,27.47
2022-12-08T23:26:43.353Z,26.00
2022-12-08T23:29:12.222Z,28.60
2022-12-08T23:31:41.400Z,19.63
2022-12-08T23:34:12.999Z,24.83
2022-12-08T23:36:42.012Z,26.53
2022-12-08T23:39:13.210Z,21.60
2022-12-08T23:41:42.267Z,25.50
2022-12-08T23:44:12.405Z,23.00
2022-12-08T23:46:41.349Z,26.07
2022-12-08T23:49:12.519Z,27.67
2022-12-08T23:51:41.433Z,24.87
2022-12-08T23:54:10.345Z,25.43
2022-12-08T23:56:39.303Z,24.33
2022-12-08T23:59:08.117Z,27.60
